Time;durP1;ratioP1;P1;durP2;ratioP2;P2;SDS_P1;SDS_P2;PMS_P1;PMS_P2;Temp;Humidity;BMP_temperature;BMP_pressure;BME280_temperature;BME280_humidity;BME280_pressure;Samples;Min_cycle;Max_cycle;Signal;HPM_P1;HPM_P2
2022/09/23 01:20:42;;;;;;;2.93;2.63;;;;;;;;;;4488876;28;21154;-81
2022/09/23 01:23:22;;;;;;;3.03;2.67;;;;;;;;;;4845283;28;20239;-81
2022/09/23 01:26:03;;;;;;;2.57;2.37;;;;;;;;;;5062904;28;20197;-81
2022/09/23 01:28:47;;;;;;;3.07;2.63;;;;;;;;;;5063004;28;20176;-81
2022/09/23 01:31:12;;;;;;;3.17;2.87;;;;;;;;;;5065494;28;20214;-81
2022/09/23 01:33:40;;;;;;;2.88;2.60;;;;;;;;;;5067820;28;20174;-81
2022/09/23 01:36:26;;;;;;;3.50;2.60;;;;;;;;;;5066690;28;20173;-81
2022/09/23 01:39:02;;;;;;;4.00;2.93;;;;;;;;;;5061511;28;20184;-81
2022/09/23 01:41:38;;;;;;;2.80;2.60;;;;;;;;;;5081740;28;20201;-81
2022/09/23 01:44:08;;;;;;;2.67;2.47;;;;;;;;;;5065779;28;20212;-81
2022/09/23 01:46:47;;;;;;;3.07;2.87;;;;;;;;;;5067383;28;20280;-81
2022/09/23 01:49:15;;;;;;;3.23;2.97;;;;;;;;;;5057702;28;20247;-81
2022/09/23 01:51:43;;;;;;;2.83;2.60;;;;;;;;;;5060400;28;20192;-81
2022/09/23 01:54:37;;;;;;;4.63;2.97;;;;;;;;;;5065067;28;20188;-81
2022/09/23 01:57:05;;;;;;;5.33;3.33;;;;;;;;;;5038018;28;20194;-81
2022/09/23 01:59:31;;;;;;;2.70;2.50;;;;;;;;;;5066857;28;20271;-81
2022/09/23 02:02:00;;;;;;;4.10;2.90;;;;;;;;;;5065047;28;20304;-81
2022/09/23 02:04:25;;;;;;;3.03;2.60;;;;;;;;;;5068621;28;20174;-81
2022/09/23 02:06:54;;;;;;;4.80;2.80;;;;;;;;;;5067734;28;20180;-81
2022/09/23 02:09:23;;;;;;;3.03;2.47;;;;;;;;;;5065039;28;20174;-81
2022/09/23 02:11:51;;;;;;;3.10;2.50;;;;;;;;;;5063549;28;20188;-81
2022/09/23 02:14:22;;;;;;;2.90;2.70;;;;;;;;;;5063359;28;20249;-81
2022/09/23 02:16:49;;;;;;;3.00;2.80;;;;;;;;;;5062950;28;20192;-81
2022/09/23 02:19:26;;;;;;;3.07;2.77;;;;;;;;;;5064909;28;20174;-81
2022/09/23 02:22:06;;;;;;;2.77;2.57;;;;;;;;;;5065359;28;20218;-81
2022/09/23 02:24:35;;;;;;;3.10;2.80;;;;;;;;;;5066248;28;20187;-81
2022/09/23 02:27:17;;;;;;;4.83;2.60;;;;;;;;;;5071294;28;20272;-81
2022/09/23 02:30:08;;;;;;;3.10;2.80;;;;;;;;;;5056989;28;20197;-81
2022/09/23 02:32:40;;;;;;;3.53;2.90;;;;;;;;;;5057690;28;20302;-81
2022/09/23 02:35:08;;;;;;;3.10;2.90;;;;;;;;;;5062365;28;20356;-81
2022/09/23 02:37:37;;;;;;;2.90;2.70;;;;;;;;;;5064919;28;20192;-81
2022/09/23 02:40:02;;;;;;;3.03;2.57;;;;;;;;;;5062151;28;20186;-81
2022/09/23 02:42:48;;;;;;;2.43;2.23;;;;;;;;;;5066714;28;20208;-81
2022/09/23 02:45:13;;;;;;;4.57;2.70;;;;;;;;;;5050568;28;20202;-81
2022/09/23 02:47:41;;;;;;;3.17;2.80;;;;;;;;;;5069402;28;20211;-81
2022/09/23 02:50:08;;;;;;;4.00;2.57;;;;;;;;;;5069583;28;20184;-81
2022/09/23 02:52:36;;;;;;;2.90;2.60;;;;;;;;;;5071398;28;20272;-81
2022/09/23 02:55:02;;;;;;;2.50;2.30;;;;;;;;;;5063838;28;20184;-81
2022/09/23 02:57:27;;;;;;;2.77;2.57;;;;;;;;;;5067964;28;20215;-81
2022/09/23 02:59:53;;;;;;;4.67;2.80;;;;;;;;;;5066355;28;20196;-81
2022/09/23 03:02:28;;;;;;;3.17;2.93;;;;;;;;;;5068835;28;20207;-81
2022/09/23 03:04:57;;;;;;;2.57;2.10;;;;;;;;;;5066843;28;20209;-81
2022/09/23 03:07:22;;;;;;;3.20;2.90;;;;;;;;;;5073706;28;20180;-81
2022/09/23 03:09:47;;;;;;;3.30;3.00;;;;;;;;;;5073300;28;20181;-81
2022/09/23 03:12:16;;;;;;;3.30;3.00;;;;;;;;;;5070659;28;20272;-81
2022/09/23 03:14:53;;;;;;;2.60;2.40;;;;;;;;;;5069723;28;20434;-81
2022/09/23 03:17:26;;;;;;;3.13;2.73;;;;;;;;;;5065622;28;20207;-82
2022/09/23 03:20:18;;;;;;;4.37;2.50;;;;;;;;;;5068325;28;20188;-81
2022/09/23 03:22:45;;;;;;;3.23;2.93;;;;;;;;;;5061977;28;20232;-81
2022/09/23 03:25:14;;;;;;;2.83;2.63;;;;;;;;;;5071761;28;20211;-81
2022/09/23 03:27:41;;;;;;;2.63;2.43;;;;;;;;;;5079482;28;20177;-81
2022/09/23 03:30:06;;;;;;;2.40;2.30;;;;;;;;;;5070071;28;20219;-81
2022/09/23 03:32:33;;;;;;;3.30;2.60;;;;;;;;;;5055346;28;20216;-81
2022/09/23 03:34:59;;;;;;;3.07;2.40;;;;;;;;;;5068645;28;20229;-81
2022/09/23 03:37:33;;;;;;;4.33;2.37;;;;;;;;;;5070285;28;20185;-81
2022/09/23 03:40:18;;;;;;;3.07;2.30;;;;;;;;;;5067804;28;20173;-81
2022/09/23 03:42:43;;;;;;;2.40;2.20;;;;;;;;;;5069066;28;20201;-81
2022/09/23 03:45:12;;;;;;;2.47;2.27;;;;;;;;;;5068826;28;20195;-81
2022/09/23 03:47:38;;;;;;;2.73;2.07;;;;;;;;;;5088567;28;20273;-81
2022/09/23 03:50:03;;;;;;;2.93;2.50;;;;;;;;;;5066314;28;20174;-81
2022/09/23 03:52:29;;;;;;;3.90;2.33;;;;;;;;;;5060085;28;20192;-80
2022/09/23 03:54:55;;;;;;;2.43;2.23;;;;;;;;;;5064845;28;20177;-81
2022/09/23 03:57:20;;;;;;;2.97;2.67;;;;;;;;;;5065516;28;20186;-81
2022/09/23 03:59:46;;;;;;;2.60;2.40;;;;;;;;;;5065143;28;20181;-81
2022/09/23 04:02:11;;;;;;;3.83;2.43;;;;;;;;;;5064938;28;20212;-81
2022/09/23 04:04:37;;;;;;;2.60;2.40;;;;;;;;;;5070769;28;20254;-81
2022/09/23 04:07:03;;;;;;;2.37;2.17;;;;;;;;;;5056838;28;20196;-81
2022/09/23 04:09:28;;;;;;;2.30;2.10;;;;;;;;;;5068237;28;20239;-81
2022/09/23 04:11:54;;;;;;;3.00;2.70;;;;;;;;;;5067111;28;20177;-81
2022/09/23 04:14:20;;;;;;;2.93;2.63;;;;;;;;;;5075362;28;20231;-82
2022/09/23 04:16:46;;;;;;;3.37;2.70;;;;;;;;;;5065854;28;20201;-81
2022/09/23 04:19:12;;;;;;;2.30;2.10;;;;;;;;;;5065724;28;20301;-81
2022/09/23 04:21:37;;;;;;;3.13;2.17;;;;;;;;;;5066879;28;20299;-82
2022/09/23 04:24:03;;;;;;;2.60;2.37;;;;;;;;;;5067929;28;20225;-82
2022/09/23 04:26:28;;;;;;;3.67;2.50;;;;;;;;;;5065019;28;20230;-81
2022/09/23 04:28:54;;;;;;;2.10;2.00;;;;;;;;;;5063464;28;20181;-81
2022/09/23 04:31:21;;;;;;;2.73;2.53;;;;;;;;;;5068950;28;20190;-81
2022/09/23 04:33:47;;;;;;;2.57;2.37;;;;;;;;;;5059238;28;20209;-81
2022/09/23 04:36:12;;;;;;;2.43;2.10;;;;;;;;;;5055959;28;20185;-81
2022/09/23 04:38:37;;;;;;;5.30;2.70;;;;;;;;;;5064788;28;20177;-81
2022/09/23 04:41:02;;;;;;;3.40;2.30;;;;;;;;;;5069482;28;20201;-82
2022/09/23 04:43:28;;;;;;;2.37;2.10;;;;;;;;;;5063068;28;20176;-81
2022/09/23 04:45:58;;;;;;;2.70;2.50;;;;;;;;;;5070785;28;20208;-82
2022/09/23 04:48:23;;;;;;;2.40;2.20;;;;;;;;;;5062786;28;20189;-80
2022/09/23 04:50:48;;;;;;;3.83;2.30;;;;;;;;;;5071361;28;20326;-81
2022/09/23 04:53:15;;;;;;;3.00;2.37;;;;;;;;;;5060261;28;20280;-81
2022/09/23 04:55:42;;;;;;;4.83;2.10;;;;;;;;;;5060225;28;20188;-81
2022/09/23 04:58:08;;;;;;;3.63;2.43;;;;;;;;;;5064663;28;20186;-81
2022/09/23 05:00:34;;;;;;;3.00;2.10;;;;;;;;;;5069951;28;20184;-81
2022/09/23 05:02:59;;;;;;;2.60;2.40;;;;;;;;;;5064222;28;20274;-81
2022/09/23 05:05:25;;;;;;;3.70;2.03;;;;;;;;;;5060667;28;20197;-81
2022/09/23 05:07:50;;;;;;;2.93;2.50;;;;;;;;;;5060069;28;20177;-81
2022/09/23 05:10:16;;;;;;;2.57;2.37;;;;;;;;;;5064023;28;20185;-81
2022/09/23 05:12:41;;;;;;;2.67;2.47;;;;;;;;;;5063227;28;20190;-81
2022/09/23 05:15:06;;;;;;;5.37;2.57;;;;;;;;;;5069196;28;20185;-81
2022/09/23 05:17:32;;;;;;;4.30;4.00;;;;;;;;;;5062670;28;20184;-81
2022/09/23 05:19:57;;;;;;;2.60;2.40;;;;;;;;;;5066138;28;20193;-81
2022/09/23 05:22:25;;;;;;;2.47;2.23;;;;;;;;;;5065158;28;20228;-81
2022/09/23 05:24:50;;;;;;;3.83;2.20;;;;;;;;;;5059727;28;20185;-81
2022/09/23 05:27:15;;;;;;;3.77;2.20;;;;;;;;;;5057418;28;20500;-81
2022/09/23 05:29:40;;;;;;;3.53;3.07;;;;;;;;;;5066744;28;20215;-81
2022/09/23 05:32:06;;;;;;;5.63;5.03;;;;;;;;;;5066859;28;20206;-81
2022/09/23 05:34:32;;;;;;;3.53;3.27;;;;;;;;;;5066568;28;20261;-81
2022/09/23 05:36:57;;;;;;;3.57;3.03;;;;;;;;;;5065008;28;20245;-81
2022/09/23 05:39:22;;;;;;;5.33;4.67;;;;;;;;;;5062235;28;20182;-81
2022/09/23 05:41:47;;;;;;;3.37;3.07;;;;;;;;;;5056796;28;20205;-81
2022/09/23 05:44:13;;;;;;;4.03;2.80;;;;;;;;;;5061512;28;20262;-81
2022/09/23 05:46:38;;;;;;;6.50;3.70;;;;;;;;;;5065209;28;20227;-81
2022/09/23 05:49:04;;;;;;;4.50;2.73;;;;;;;;;;5060009;28;20170;-82
2022/09/23 05:51:30;;;;;;;3.47;2.70;;;;;;;;;;5062674;28;20175;-81
2022/09/23 05:53:57;;;;;;;3.83;3.47;;;;;;;;;;5057216;28;20186;-81
2022/09/23 05:56:23;;;;;;;10.80;10.07;;;;;;;;;;5067953;28;20188;-82
2022/09/23 05:58:48;;;;;;;6.33;5.73;;;;;;;;;;5064004;28;20183;-81
2022/09/23 06:01:16;;;;;;;10.93;8.33;;;;;;;;;;5060346;28;20193;-81
2022/09/23 06:03:44;;;;;;;5.10;4.60;;;;;;;;;;5064904;28;20186;-81
2022/09/23 06:06:13;;;;;;;5.07;4.37;;;;;;;;;;5064156;28;20258;-81
2022/09/23 06:08:38;;;;;;;5.60;4.73;;;;;;;;;;5067734;28;20165;-81
2022/09/23 06:11:05;;;;;;;4.70;3.80;;;;;;;;;;5059532;28;20190;-81
2022/09/23 06:13:31;;;;;;;5.97;4.13;;;;;;;;;;5059863;28;20297;-81
2022/09/23 06:15:56;;;;;;;6.00;5.40;;;;;;;;;;5063624;28;20543;-81
2022/09/23 06:18:22;;;;;;;4.60;4.20;;;;;;;;;;5066402;28;20184;-82
2022/09/23 06:20:50;;;;;;;4.40;4.10;;;;;;;;;;5065697;28;20247;-81
2022/09/23 06:23:16;;;;;;;4.30;3.90;;;;;;;;;;5066190;28;20225;-81
2022/09/23 06:25:41;;;;;;;4.60;3.87;;;;;;;;;;5071787;28;20177;-81
2022/09/23 06:28:10;;;;;;;4.10;3.80;;;;;;;;;;5061611;28;20204;-82
2022/09/23 06:30:35;;;;;;;4.93;4.40;;;;;;;;;;5066852;28;20170;-81
2022/09/23 06:33:01;;;;;;;9.20;5.27;;;;;;;;;;5067575;28;20169;-81
2022/09/23 06:35:26;;;;;;;5.87;4.33;;;;;;;;;;5062566;28;20181;-81
2022/09/23 06:37:52;;;;;;;6.07;3.90;;;;;;;;;;5060604;28;20185;-82
2022/09/23 06:40:18;;;;;;;4.43;3.60;;;;;;;;;;5066495;28;20170;-81
2022/09/23 06:42:43;;;;;;;3.40;3.10;;;;;;;;;;5059261;28;20224;-82
2022/09/23 06:45:11;;;;;;;3.37;3.07;;;;;;;;;;5063596;28;20180;-82
2022/09/23 06:47:37;;;;;;;4.33;3.80;;;;;;;;;;5066458;28;20169;-82
2022/09/23 06:50:03;;;;;;;4.53;4.10;;;;;;;;;;5060698;28;20174;-82
2022/09/23 06:52:28;;;;;;;4.00;3.43;;;;;;;;;;5058281;28;20178;-82
2022/09/23 06:54:53;;;;;;;2.77;2.57;;;;;;;;;;5058221;28;20185;-82
2022/09/23 06:57:19;;;;;;;5.37;3.63;;;;;;;;;;5062394;28;20181;-82
2022/09/23 06:59:44;;;;;;;3.33;3.03;;;;;;;;;;5057049;28;20526;-82
2022/09/23 07:02:10;;;;;;;2.90;2.70;;;;;;;;;;5058055;28;20197;-82
2022/09/23 07:04:35;;;;;;;2.97;2.53;;;;;;;;;;5069414;28;20267;-82
2022/09/23 07:07:00;;;;;;;3.83;2.77;;;;;;;;;;5064084;28;20174;-82
2022/09/23 07:09:26;;;;;;;5.37;2.70;;;;;;;;;;5058979;28;20177;-82
2022/09/23 07:11:52;;;;;;;3.80;3.07;;;;;;;;;;5066245;28;20182;-82
2022/09/23 07:14:17;;;;;;;3.20;2.57;;;;;;;;;;5066807;28;20220;-82
2022/09/23 07:16:42;;;;;;;4.03;2.97;;;;;;;;;;5064105;28;20201;-82
2022/09/23 07:19:07;;;;;;;3.83;3.10;;;;;;;;;;5070921;28;20173;-82
2022/09/23 07:21:32;;;;;;;5.57;3.30;;;;;;;;;;5066218;28;20212;-80
2022/09/23 07:23:58;;;;;;;5.83;2.90;;;;;;;;;;5076847;28;20230;-81
2022/09/23 07:26:23;;;;;;;4.80;4.40;;;;;;;;;;5067429;28;20189;-80
2022/09/23 07:28:53;;;;;;;3.50;2.97;;;;;;;;;;5067959;28;20270;-80
2022/09/23 07:31:18;;;;;;;3.47;3.07;;;;;;;;;;5067012;28;20190;-81
2022/09/23 07:33:43;;;;;;;3.07;2.47;;;;;;;;;;5067379;28;20189;-80
2022/09/23 07:36:10;;;;;;;2.87;2.67;;;;;;;;;;5063786;28;20182;-81
2022/09/23 07:38:36;;;;;;;4.43;3.03;;;;;;;;;;5068973;28;20310;-81
2022/09/23 07:41:02;;;;;;;3.10;2.90;;;;;;;;;;5061386;28;20218;-81
2022/09/23 07:43:30;;;;;;;3.37;3.07;;;;;;;;;;5069304;28;20186;-81
2022/09/23 07:45:55;;;;;;;2.97;2.67;;;;;;;;;;5057393;28;20227;-81
2022/09/23 07:48:21;;;;;;;2.83;2.63;;;;;;;;;;5069356;28;20321;-81
2022/09/23 07:50:46;;;;;;;4.60;2.80;;;;;;;;;;5069968;28;20171;-81
2022/09/23 07:53:12;;;;;;;3.47;2.83;;;;;;;;;;5072449;28;20181;-81
2022/09/23 07:55:37;;;;;;;9.97;6.40;;;;;;;;;;5075266;28;20482;-81
2022/09/23 07:58:02;;;;;;;3.00;2.70;;;;;;;;;;5065125;28;20202;-81
2022/09/23 08:00:28;;;;;;;4.23;2.83;;;;;;;;;;5068606;28;20252;-81
2022/09/23 08:02:53;;;;;;;3.37;3.07;;;;;;;;;;5067916;28;20211;-81
2022/09/23 08:05:18;;;;;;;9.93;8.20;;;;;;;;;;5065263;28;20243;-81
2022/09/23 08:07:43;;;;;;;3.20;2.90;;;;;;;;;;5061947;28;20181;-81
2022/09/23 08:10:12;;;;;;;2.83;2.63;;;;;;;;;;5072040;28;20263;-81
2022/09/23 08:12:38;;;;;;;3.87;2.97;;;;;;;;;;5062677;28;20175;-81
2022/09/23 08:15:04;;;;;;;4.57;4.17;;;;;;;;;;5066797;28;20180;-81
2022/09/23 08:17:29;;;;;;;5.77;3.43;;;;;;;;;;5060598;28;20561;-81
2022/09/23 08:19:54;;;;;;;3.03;2.73;;;;;;;;;;5061450;28;20291;-81
2022/09/23 08:22:19;;;;;;;3.33;3.03;;;;;;;;;;5063051;28;20290;-81
2022/09/23 08:24:45;;;;;;;3.23;2.93;;;;;;;;;;5066603;28;20233;-81
2022/09/23 08:27:11;;;;;;;3.27;2.57;;;;;;;;;;5053842;28;20176;-81
2022/09/23 08:29:36;;;;;;;3.07;2.77;;;;;;;;;;5063757;28;20195;-81
2022/09/23 08:32:02;;;;;;;4.73;2.90;;;;;;;;;;5060210;28;20184;-81
2022/09/23 08:34:27;;;;;;;3.07;2.77;;;;;;;;;;5064760;28;20175;-81
2022/09/23 08:36:52;;;;;;;2.53;2.33;;;;;;;;;;5065989;28;20180;-81
2022/09/23 08:39:19;;;;;;;2.90;2.70;;;;;;;;;;5064049;28;20276;-81
2022/09/23 08:41:59;;;;;;;3.50;2.67;;;;;;;;;;5067889;28;20200;-81
2022/09/23 08:44:41;;;;;;;3.73;2.60;;;;;;;;;;5060188;28;20196;-81
2022/09/23 08:47:11;;;;;;;3.23;2.70;;;;;;;;;;5062873;28;20191;-81
2022/09/23 08:49:40;;;;;;;3.20;2.80;;;;;;;;;;5064891;28;20180;-81
2022/09/23 08:52:08;;;;;;;4.37;2.80;;;;;;;;;;5076735;28;20240;-81
2022/09/23 08:54:33;;;;;;;3.83;3.40;;;;;;;;;;5063633;28;20177;-81
2022/09/23 08:57:00;;;;;;;4.60;3.20;;;;;;;;;;5061689;28;20192;-81
2022/09/23 08:59:29;;;;;;;2.70;2.50;;;;;;;;;;5065618;28;20276;-81
2022/09/23 09:01:59;;;;;;;5.33;3.23;;;;;;;;;;5082686;28;20217;-81
2022/09/23 09:04:36;;;;;;;3.60;3.00;;;;;;;;;;5069328;28;20189;-80
2022/09/23 09:07:22;;;;;;;3.90;2.70;;;;;;;;;;5066626;28;20180;-81
2022/09/23 09:09:52;;;;;;;3.93;3.53;;;;;;;;;;5061058;28;20259;-81
2022/09/23 09:12:21;;;;;;;3.10;2.90;;;;;;;;;;5060916;28;20189;-81
2022/09/23 09:14:46;;;;;;;4.20;3.07;;;;;;;;;;5068028;28;21343;-82
2022/09/23 09:17:23;;;;;;;4.80;3.60;;;;;;;;;;5063140;28;20177;-82
2022/09/23 09:19:51;;;;;;;3.37;3.07;;;;;;;;;;5067971;28;20277;-81
2022/09/23 09:22:35;;;;;;;3.10;2.70;;;;;;;;;;5058689;28;20319;-81
2022/09/23 09:25:19;;;;;;;6.90;3.90;;;;;;;;;;5063719;28;20226;-82
2022/09/23 09:27:46;;;;;;;6.97;4.17;;;;;;;;;;5066100;28;20252;-81
2022/09/23 09:30:13;;;;;;;6.90;5.87;;;;;;;;;;5068159;28;20230;-82
2022/09/23 09:32:47;;;;;;;9.03;4.23;;;;;;;;;;5063505;28;20189;-82
2022/09/23 09:35:36;;;;;;;4.60;3.93;;;;;;;;;;5064103;28;20186;-81
2022/09/23 09:38:02;;;;;;;7.50;5.40;;;;;;;;;;5063754;28;20174;-82
2022/09/23 09:40:27;;;;;;;5.47;4.30;;;;;;;;;;5065858;28;20174;-81
2022/09/23 09:42:53;;;;;;;3.73;3.40;;;;;;;;;;5065072;28;20199;-82
2022/09/23 09:45:25;;;;;;;5.27;4.70;;;;;;;;;;5064461;28;20227;-81
2022/09/23 09:48:31;;;;;;;5.40;3.87;;;;;;;;;;5062769;28;20244;-82
2022/09/23 09:50:56;;;;;;;3.40;3.10;;;;;;;;;;4990791;28;20185;-81
2022/09/23 09:53:24;;;;;;;3.30;3.00;;;;;;;;;;4987325;28;20419;-81
2022/09/23 09:55:57;;;;;;;3.20;2.70;;;;;;;;;;5012947;28;20190;-81
2022/09/23 09:58:22;;;;;;;3.90;3.50;;;;;;;;;;5065992;28;20304;-82
2022/09/23 10:00:49;;;;;;;3.37;3.03;;;;;;;;;;5062078;28;20261;-82
2022/09/23 10:03:37;;;;;;;4.33;3.33;;;;;;;;;;5066200;28;20177;-82
2022/09/23 10:06:12;;;;;;;10.93;4.40;;;;;;;;;;5064641;28;20477;-82
2022/09/23 10:08:37;;;;;;;3.27;2.97;;;;;;;;;;5061285;28;20184;-82
2022/09/23 10:11:02;;;;;;;3.43;3.13;;;;;;;;;;5067660;28;20203;-82
2022/09/23 10:13:29;;;;;;;3.43;2.90;;;;;;;;;;5064281;28;20188;-82
2022/09/23 10:15:55;;;;;;;3.53;2.80;;;;;;;;;;5064875;28;20260;-82
2022/09/23 10:18:33;;;;;;;3.47;3.23;;;;;;;;;;5065937;28;20186;-82
2022/09/23 10:21:00;;;;;;;3.03;2.77;;;;;;;;;;5059299;28;20176;-83
2022/09/23 10:23:27;;;;;;;2.90;2.70;;;;;;;;;;5063102;28;20234;-82
2022/09/23 10:25:56;;;;;;;3.37;2.67;;;;;;;;;;5063581;28;20181;-82
2022/09/23 10:28:36;;;;;;;5.63;3.17;;;;;;;;;;5064899;28;20179;-82
2022/09/23 10:31:05;;;;;;;4.43;3.60;;;;;;;;;;5065737;28;20190;-82
2022/09/23 10:33:30;;;;;;;5.07;3.03;;;;;;;;;;5061415;28;20194;-82
2022/09/23 10:48:00;;;;;;;2.90;2.70;;;;;;;;;;5065631;28;20195;-83
2022/09/23 10:50:29;;;;;;;4.00;2.90;;;;;;;;;;5068104;28;20193;-83
2022/09/23 10:53:01;;;;;;;3.77;2.80;;;;;;;;;;5066500;28;20640;-84
2022/09/23 10:55:31;;;;;;;4.23;2.90;;;;;;;;;;5063410;28;20196;-82
2022/09/23 10:58:03;;;;;;;3.53;3.20;;;;;;;;;;5062587;28;20185;-83
2022/09/23 11:00:46;;;;;;;3.13;2.90;;;;;;;;;;5063109;28;20196;-82
2022/09/23 11:03:23;;;;;;;3.30;3.00;;;;;;;;;;5060495;28;20186;-82
2022/09/23 11:06:07;;;;;;;4.53;3.10;;;;;;;;;;5069558;28;20234;-83
2022/09/23 11:08:45;;;;;;;5.23;3.33;;;;;;;;;;5063447;28;20204;-82
2022/09/23 11:11:28;;;;;;;4.50;3.70;;;;;;;;;;5063067;28;20186;-82
2022/09/23 11:14:05;;;;;;;8.60;2.70;;;;;;;;;;5065835;28;20174;-83
2022/09/23 11:16:53;;;;;;;3.97;3.37;;;;;;;;;;5082759;28;20171;-83
2022/09/23 11:19:20;;;;;;;4.03;3.53;;;;;;;;;;5051770;28;20186;-83
2022/09/23 11:21:49;;;;;;;4.13;3.07;;;;;;;;;;5067072;28;20256;-84
2022/09/23 11:24:17;;;;;;;3.47;3.17;;;;;;;;;;5063511;28;20223;-84
2022/09/23 11:26:53;;;;;;;5.03;3.50;;;;;;;;;;5065450;28;20177;-83
2022/09/23 11:29:19;;;;;;;4.20;3.37;;;;;;;;;;5066544;28;20275;-83
2022/09/23 11:31:52;;;;;;;3.63;2.70;;;;;;;;;;5068307;28;20265;-84
2022/09/23 11:34:29;;;;;;;5.33;3.27;;;;;;;;;;5062889;28;20228;-83
2022/09/23 11:37:21;;;;;;;3.67;2.70;;;;;;;;;;5062749;28;20180;-84
2022/09/23 11:39:49;;;;;;;3.43;2.70;;;;;;;;;;5060354;28;20183;-83
2022/09/23 11:42:35;;;;;;;4.33;3.37;;;;;;;;;;5066568;28;20186;-84
2022/09/23 11:45:13;;;;;;;4.63;3.70;;;;;;;;;;5060023;28;20188;-83
2022/09/23 11:47:41;;;;;;;7.80;3.80;;;;;;;;;;5070136;28;20259;-84
2022/09/23 11:50:16;;;;;;;3.93;3.27;;;;;;;;;;5068677;28;20174;-83
2022/09/23 11:52:50;;;;;;;4.07;3.73;;;;;;;;;;5065700;28;20232;-82
2022/09/23 11:55:33;;;;;;;3.63;3.27;;;;;;;;;;5060904;28;20207;-84
2022/09/23 11:58:17;;;;;;;3.47;3.17;;;;;;;;;;5065658;28;20171;-83
2022/09/23 12:00:46;;;;;;;3.53;3.23;;;;;;;;;;5063975;28;20175;-83
2022/09/23 12:03:14;;;;;;;3.50;3.20;;;;;;;;;;5082216;28;20268;-83
2022/09/23 12:05:44;;;;;;;4.20;3.10;;;;;;;;;;5065083;28;20211;-83
2022/09/23 12:08:25;;;;;;;4.90;3.10;;;;;;;;;;5059986;28;20243;-83
2022/09/23 12:10:57;;;;;;;3.57;3.10;;;;;;;;;;5069239;28;20187;-84
2022/09/23 12:13:22;;;;;;;5.10;3.00;;;;;;;;;;5069452;28;20191;-82
2022/09/23 12:16:10;;;;;;;3.60;3.30;;;;;;;;;;5061645;28;20183;-83
2022/09/23 12:18:41;;;;;;;5.17;3.33;;;;;;;;;;5066999;28;20270;-84
2022/09/23 12:21:30;;;;;;;3.60;3.30;;;;;;;;;;5067297;28;20181;-83
2022/09/23 12:23:56;;;;;;;3.47;3.03;;;;;;;;;;5066341;28;20250;-84
2022/09/23 12:26:23;;;;;;;3.30;3.00;;;;;;;;;;5064370;28;20439;-82
2022/09/23 12:28:49;;;;;;;3.03;2.83;;;;;;;;;;5063107;28;20188;-84
2022/09/23 12:31:17;;;;;;;3.40;3.20;;;;;;;;;;5056908;28;20211;-84
2022/09/23 12:33:52;;;;;;;3.23;3.03;;;;;;;;;;5062024;28;20272;-83
2022/09/23 12:36:38;;;;;;;3.00;2.70;;;;;;;;;;5063991;28;20183;-84
2022/09/23 12:39:05;;;;;;;3.00;2.80;;;;;;;;;;5064412;28;20388;-84
2022/09/23 12:41:36;;;;;;;4.93;4.47;;;;;;;;;;5058908;28;20183;-83
2022/09/23 12:44:13;;;;;;;3.33;3.10;;;;;;;;;;5067122;28;20238;-84
2022/09/23 12:46:39;;;;;;;4.13;3.20;;;;;;;;;;5063557;28;20186;-83
2022/09/23 12:49:20;;;;;;;21.50;19.30;;;;;;;;;;5063181;28;20203;-83
2022/09/23 12:52:05;;;;;;;4.97;3.30;;;;;;;;;;5058764;28;20198;-83
2022/09/23 12:54:31;;;;;;;3.47;3.17;;;;;;;;;;5083410;28;20183;-84
2022/09/23 12:56:57;;;;;;;3.30;3.00;;;;;;;;;;5059782;28;20181;-84
2022/09/23 12:59:27;;;;;;;7.17;3.27;;;;;;;;;;5063355;28;20176;-84
2022/09/23 13:01:52;;;;;;;2.90;2.70;;;;;;;;;;5063064;28;20206;-84
2022/09/23 13:07:24;;;;;;;3.10;2.80;;;;;;;;;;5065401;28;20195;-84
2022/09/23 13:09:51;;;;;;;6.13;5.63;;;;;;;;;;5068008;28;20234;-83
2022/09/23 13:12:21;;;;;;;4.50;3.60;;;;;;;;;;5059493;28;20222;-83
2022/09/23 13:14:48;;;;;;;4.87;2.90;;;;;;;;;;5060010;28;20190;-84
2022/09/23 13:17:24;;;;;;;3.73;3.37;;;;;;;;;;5063761;28;20180;-84
2022/09/23 13:19:57;;;;;;;3.77;3.47;;;;;;;;;;5067597;28;20191;-84
2022/09/23 13:22:45;;;;;;;4.30;3.90;;;;;;;;;;5066314;28;20232;-85
2022/09/23 13:25:33;;;;;;;4.07;3.40;;;;;;;;;;5043654;28;20200;-85
2022/09/23 13:28:00;;;;;;;4.93;3.27;;;;;;;;;;5070028;28;20278;-84
2022/09/23 13:30:25;;;;;;;3.80;3.50;;;;;;;;;;5068306;28;20179;-84
2022/09/23 13:33:09;;;;;;;4.50;3.33;;;;;;;;;;5063140;28;20202;-84
2022/09/23 13:35:36;;;;;;;4.63;3.00;;;;;;;;;;5062190;28;20179;-85
2022/09/23 13:38:17;;;;;;;6.07;4.43;;;;;;;;;;5085132;28;20185;-84
2022/09/23 13:40:43;;;;;;;3.60;2.97;;;;;;;;;;5061522;28;20179;-84
2022/09/23 13:43:13;;;;;;;4.10;2.97;;;;;;;;;;5067646;28;20190;-84
2022/09/23 13:45:41;;;;;;;3.43;3.13;;;;;;;;;;5065943;28;20184;-84
2022/09/23 13:48:09;;;;;;;4.33;2.73;;;;;;;;;;5060532;28;20189;-84
2022/09/23 13:50:37;;;;;;;5.97;3.60;;;;;;;;;;5069883;28;20262;-84
2022/09/23 13:53:07;;;;;;;3.20;2.97;;;;;;;;;;5063110;28;20215;-83
2022/09/23 13:55:36;;;;;;;4.20;3.07;;;;;;;;;;5060005;28;20423;-84
2022/09/23 13:58:12;;;;;;;3.37;3.00;;;;;;;;;;5064873;28;20175;-84
2022/09/23 14:00:38;;;;;;;4.20;3.77;;;;;;;;;;5058432;28;20185;-84
2022/09/23 14:03:22;;;;;;;5.20;3.37;;;;;;;;;;5060864;28;20184;-85
2022/09/23 14:05:49;;;;;;;3.80;3.10;;;;;;;;;;5061336;28;20288;-84
2022/09/23 14:08:14;;;;;;;7.97;3.70;;;;;;;;;;5065324;28;20199;-84
2022/09/23 14:10:42;;;;;;;5.37;3.40;;;;;;;;;;5072532;28;20185;-84
2022/09/23 14:13:12;;;;;;;3.20;3.00;;;;;;;;;;5066370;28;20212;-84
2022/09/23 14:15:38;;;;;;;3.03;2.73;;;;;;;;;;5061192;28;20211;-84
2022/09/23 14:18:05;;;;;;;4.30;3.27;;;;;;;;;;5062832;28;20208;-84
2022/09/23 14:20:30;;;;;;;4.10;3.33;;;;;;;;;;5061618;28;20206;-84
2022/09/23 14:23:06;;;;;;;3.90;3.50;;;;;;;;;;5066130;28;20231;-84
2022/09/23 14:25:31;;;;;;;4.43;3.27;;;;;;;;;;5060984;28;20264;-84
2022/09/23 14:27:57;;;;;;;4.57;3.67;;;;;;;;;;5066019;28;20180;-84
2022/09/23 14:30:22;;;;;;;3.60;2.80;;;;;;;;;;5067423;28;20276;-84
2022/09/23 14:32:48;;;;;;;4.00;3.10;;;;;;;;;;5071536;28;20216;-84
2022/09/23 14:35:21;;;;;;;3.87;3.47;;;;;;;;;;5075382;28;20178;-85
2022/09/23 14:40:48;;;;;;;3.47;3.17;;;;;;;;;;5063269;28;20214;-84
2022/09/23 14:43:21;;;;;;;2.97;2.63;;;;;;;;;;5070521;28;20212;-85
2022/09/23 14:45:50;;;;;;;6.33;5.67;;;;;;;;;;5071085;28;20212;-84
2022/09/23 14:48:17;;;;;;;5.10;3.67;;;;;;;;;;5067934;28;20181;-84
2022/09/23 14:50:51;;;;;;;3.90;3.60;;;;;;;;;;5068790;28;20181;-84
2022/09/23 14:53:17;;;;;;;3.17;2.87;;;;;;;;;;5070344;28;20214;-85
2022/09/23 14:55:43;;;;;;;5.17;3.50;;;;;;;;;;5067026;28;20173;-84
2022/09/23 14:58:14;;;;;;;4.27;3.83;;;;;;;;;;5070582;28;20178;-84
2022/09/23 15:00:49;;;;;;;5.37;3.60;;;;;;;;;;5077431;28;20161;-84
2022/09/23 15:03:15;;;;;;;3.83;3.20;;;;;;;;;;5069093;28;20205;-84
2022/09/23 15:05:42;;;;;;;2.97;2.77;;;;;;;;;;5069785;28;20224;-84
2022/09/23 15:08:09;;;;;;;3.77;3.00;;;;;;;;;;5065180;28;20183;-84
2022/09/23 15:10:38;;;;;;;4.97;3.00;;;;;;;;;;5072303;28;20267;-82
2022/09/23 15:13:22;;;;;;;3.40;2.90;;;;;;;;;;5069391;28;20209;-84
2022/09/23 15:15:50;;;;;;;3.77;3.10;;;;;;;;;;5060307;28;20199;-83
2022/09/23 15:18:18;;;;;;;3.33;3.03;;;;;;;;;;5064298;28;20272;-84
2022/09/23 15:20:48;;;;;;;3.20;2.87;;;;;;;;;;5068286;28;20196;-84
2022/09/23 15:23:31;;;;;;;5.27;3.30;;;;;;;;;;5060437;28;20230;-83
2022/09/23 15:25:56;;;;;;;3.00;2.70;;;;;;;;;;5076313;28;20189;-83
2022/09/23 15:28:23;;;;;;;3.47;3.27;;;;;;;;;;5066583;28;20183;-83
2022/09/23 15:30:49;;;;;;;4.80;3.67;;;;;;;;;;5064631;28;20184;-83
2022/09/23 15:33:15;;;;;;;3.23;3.00;;;;;;;;;;5066017;28;20300;-84
2022/09/23 15:35:47;;;;;;;4.40;2.77;;;;;;;;;;5065021;28;20314;-83
2022/09/23 15:38:12;;;;;;;2.83;2.63;;;;;;;;;;5080143;28;20253;-82
2022/09/23 15:40:39;;;;;;;3.90;2.83;;;;;;;;;;5064360;28;20260;-83
2022/09/23 15:43:17;;;;;;;5.43;3.10;;;;;;;;;;5062773;28;20181;-83
2022/09/23 15:45:45;;;;;;;3.60;3.30;;;;;;;;;;5067560;28;20182;-84
2022/09/23 15:48:11;;;;;;;2.87;2.67;;;;;;;;;;5065646;28;20182;-84
2022/09/23 15:50:37;;;;;;;3.93;2.97;;;;;;;;;;5069442;28;20181;-84
2022/09/23 15:53:04;;;;;;;4.57;2.93;;;;;;;;;;5064839;28;20199;-84
2022/09/23 15:55:30;;;;;;;2.90;2.70;;;;;;;;;;5063313;28;20219;-84
2022/09/23 15:57:56;;;;;;;5.13;3.27;;;;;;;;;;5062223;28;20192;-83
2022/09/23 16:00:21;;;;;;;5.63;2.97;;;;;;;;;;5062476;28;20193;-83
2022/09/23 16:02:47;;;;;;;4.53;3.27;;;;;;;;;;5062780;28;20245;-84
2022/09/23 16:05:35;;;;;;;3.53;2.43;;;;;;;;;;5061648;28;20211;-83
2022/09/23 16:08:01;;;;;;;5.60;2.83;;;;;;;;;;5064551;28;20321;-83
2022/09/23 16:10:26;;;;;;;3.93;2.83;;;;;;;;;;5067392;28;20218;-84
2022/09/23 16:12:53;;;;;;;4.47;2.63;;;;;;;;;;5062990;28;20227;-83
2022/09/23 16:15:19;;;;;;;3.97;2.43;;;;;;;;;;5079526;28;20176;-81
2022/09/23 16:17:45;;;;;;;3.10;2.80;;;;;;;;;;5085207;28;20269;-83
2022/09/23 16:20:11;;;;;;;3.03;2.73;;;;;;;;;;5065359;28;20261;-82
2022/09/23 16:22:37;;;;;;;3.00;2.70;;;;;;;;;;5070497;28;20215;-83
2022/09/23 16:25:03;;;;;;;3.70;3.23;;;;;;;;;;5065622;28;20327;-83
2022/09/23 16:27:28;;;;;;;3.47;2.80;;;;;;;;;;5066057;28;20174;-83
2022/09/23 16:29:54;;;;;;;4.83;2.90;;;;;;;;;;5070996;28;20186;-83
2022/09/23 16:32:20;;;;;;;2.80;2.60;;;;;;;;;;5066841;28;20198;-83
2022/09/23 16:34:45;;;;;;;7.83;7.20;;;;;;;;;;5067394;28;20180;-83